Jack Guidry — WDF2422 — position and weather

sailwx.info

Track history (hours):
 
Tides and Currents Weather Stations Pressure Air Temp Water Temp Dewpoint Dewpoint Depression Visibility Wind Speed Wind Dir Waves Ship Positions

Jack Guidry

Owner: Enterprise Marine Services, LLC, San Antonio, TX. More information available from US FCC via Universal Licensing System and Coast Guard Vessel Documentation Center.

Last reported at 2015-Jul-31 17:33 UTC. Time now 2015-Aug-01 03:32 UTC.
Position N 29°44' W 095°14'.

Length 22 m; draft 2.5 m.

Type: Other ship. MMSI: 367003430.

Date/timePositionNaut miles runAvg speedWind from/ knotsBaromVisibWave heightAir tempDewpointWater temp
2015-Jul-31 17:33N 29°44' W 095°14'0 0.0
2015-Jul-31 16:22N 29°44' W 095°14'0 0.0
2015-Jul-31 15:32N 29°44' W 095°14'0 0.0
2015-Jul-31 14:20N 29°44' W 095°14'0 0.0
2015-Jul-31 13:32N 29°44' W 095°14'0 0.0
2015-Jul-31 12:33N 29°44' W 095°14'0 0.0
2015-Jul-31 11:33N 29°44' W 095°14'0 0.0
2015-Jul-31 10:34N 29°44' W 095°14'0 0.0
2015-Jul-31 09:33N 29°44' W 095°14'0 0.0
2015-Jul-31 08:33N 29°44' W 095°14'0 0.0
2015-Jul-31 06:26N 29°44' W 095°14'0 0.0
2015-Jul-31 05:26N 29°44' W 095°14'3 1.1
2015-Jul-31 02:24N 29°45' W 095°10'4 5.3
2015-Jul-31 01:33N 29°46' W 095°05'1 0.0
2015-Jul-29 18:28N 29°47' W 095°05'1 1.2
2015-Jul-29 17:15N 29°46' W 095°05'3 4.4
2015-Jul-29 16:33N 29°44' W 095°02'5 4.7
2015-Jul-29 15:33N 29°40' W 094°59'6 5.7
2015-Jul-29 14:33N 29°35' W 094°56'7 6.6
2015-Jul-29 13:33N 29°30' W 094°52'  
2015-Jul-24 15:34N 29°32' W 094°54'7 6.8
2015-Jul-24 14:33N 29°38' W 094°58'6 6.4
2015-Jul-24 13:33N 29°44' W 095°02'4 3.4
2015-Jul-24 12:22N 29°45' W 095°06'0 0.3
2015-Jul-24 11:32N 29°46' W 095°06'1 0.6
2015-Jul-24 09:29N 29°44' W 095°06'2 0.1
2015-Jul-23 15:33N 29°44' W 095°09'5 2.4
2015-Jul-23 13:30N 29°47' W 095°04'0 0.0
2015-Jul-22 17:21N 29°47' W 095°05'  
Track history (hours):
 
Tides and Currents Weather Stations Pressure Air Temp Water Temp Dewpoint Dewpoint Depression Visibility Wind Speed Wind Dir Waves Ship Positions

Jack Guidry

Owner: Enterprise Marine Services, LLC, San Antonio, TX. More information available from US FCC via Universal Licensing System and Coast Guard Vessel Documentation Center.

Last reported at 2015-Jul-31 17:33 UTC. Time now 2015-Aug-01 03:32 UTC.
Position N 29°44' W 095°14'.

Length 22 m; draft 2.5 m.

Type: Other ship. MMSI: 367003430.

Date/timePositionNaut miles runAvg speedWind from/ knotsBaromVisibWave heightAir tempDewpointWater temp
2015-Jul-31 17:33N 29°44' W 095°14'0 0.0
2015-Jul-31 16:22N 29°44' W 095°14'0 0.0
2015-Jul-31 15:32N 29°44' W 095°14'0 0.0
2015-Jul-31 14:20N 29°44' W 095°14'0 0.0
2015-Jul-31 13:32N 29°44' W 095°14'0 0.0
2015-Jul-31 12:33N 29°44' W 095°14'0 0.0
2015-Jul-31 11:33N 29°44' W 095°14'0 0.0
2015-Jul-31 10:34N 29°44' W 095°14'0 0.0
2015-Jul-31 09:33N 29°44' W 095°14'0 0.0
2015-Jul-31 08:33N 29°44' W 095°14'0 0.0
2015-Jul-31 06:26N 29°44' W 095°14'0 0.0
2015-Jul-31 05:26N 29°44' W 095°14'3 1.1
2015-Jul-31 02:24N 29°45' W 095°10'4 5.3
2015-Jul-31 01:33N 29°46' W 095°05'1 0.0
2015-Jul-29 18:28N 29°47' W 095°05'1 1.2
2015-Jul-29 17:15N 29°46' W 095°05'3 4.4
2015-Jul-29 16:33N 29°44' W 095°02'5 4.7
2015-Jul-29 15:33N 29°40' W 094°59'6 5.7
2015-Jul-29 14:33N 29°35' W 094°56'7 6.6
2015-Jul-29 13:33N 29°30' W 094°52'  
2015-Jul-24 15:34N 29°32' W 094°54'7 6.8
2015-Jul-24 14:33N 29°38' W 094°58'6 6.4
2015-Jul-24 13:33N 29°44' W 095°02'4 3.4
2015-Jul-24 12:22N 29°45' W 095°06'0 0.3
2015-Jul-24 11:32N 29°46' W 095°06'1 0.6
2015-Jul-24 09:29N 29°44' W 095°06'2 0.1
2015-Jul-23 15:33N 29°44' W 095°09'5 2.4
2015-Jul-23 13:30N 29°47' W 095°04'0 0.0
2015-Jul-22 17:21N 29°47' W 095°05'  

Dump ship's entire track history